Clarion Muni Information

FAA: CAV - ICAO: KCAV

Clarion Muni (Airport) Location

State Iowa
County Wright
City Clarion
Clarion Muni (Airport) is 1 mile northwest of Clarion, IA.
Latitude 42-44-25.7000N
Longitude 093-45-32.6000W
Elevation 1,156ft

Clarion Muni METARs

METAR KCAV 190835Z AUTO 21006KT 10SM BKN075 15/09 A2971 RMK A01
Altimeter 29.71"
Temperature 15.0°C (59.0°F)
Wind 210° at 6KT
Clouds broken at 7,500ft
Visibility 10.0mi
Time observed: 2022-05-19T08:35:00Z

Clarion Muni (Airport) Details

Status Operational
Activation December 1941
Ownership Public
Usage Public
Chart OMAHA
ATC on-site No
Beacon schedule sunset-sunrise
Beacon color clear green

Clarion Muni (Airport) Contacts

Owner CITY OF CLARION
Owner address 121 1ST ST. SW, CLARION, IA 50525
Owner phone 515-851-0526
Manager MARTIN LENSS, CM
Manager address 2515 ARTHUR COLLINS PKWY SW, CEDAR RAPIDS, IA 52404-8952
Manager phone (319) 731-5711

Clarion Muni Radio Frequencies

Clarion Muni (Airport) Radio Frequencies

UNICOM 122.8
Common traffic advisory frequency (CTAF) 122.8